sensor_id;sensor_type;location;lat;lon;timestamp;temperature;humidity
81321;DHT22;70785;52.570;5.638;2023-07-08T00:00:50;18.80;61.40
81321;DHT22;70785;52.570;5.638;2023-07-08T00:03:18;18.70;61.40
81321;DHT22;70785;52.570;5.638;2023-07-08T00:05:45;18.70;61.50
81321;DHT22;70785;52.570;5.638;2023-07-08T00:08:14;18.70;61.50
81321;DHT22;70785;52.570;5.638;2023-07-08T00:10:40;18.60;61.60
81321;DHT22;70785;52.570;5.638;2023-07-08T00:13:08;18.60;61.70
81321;DHT22;70785;52.570;5.638;2023-07-08T00:15:36;18.60;61.80
81321;DHT22;70785;52.570;5.638;2023-07-08T00:18:13;18.60;61.80
81321;DHT22;70785;52.570;5.638;2023-07-08T00:20:43;18.50;61.90
81321;DHT22;70785;52.570;5.638;2023-07-08T00:23:10;18.50;61.90
81321;DHT22;70785;52.570;5.638;2023-07-08T00:25:37;18.40;62.00
81321;DHT22;70785;52.570;5.638;2023-07-08T00:28:12;18.40;62.10
81321;DHT22;70785;52.570;5.638;2023-07-08T00:30:39;18.40;62.20
81321;DHT22;70785;52.570;5.638;2023-07-08T00:33:06;18.40;62.10
81321;DHT22;70785;52.570;5.638;2023-07-08T00:35:38;18.30;62.10
81321;DHT22;70785;52.570;5.638;2023-07-08T00:38:17;18.30;62.20
81321;DHT22;70785;52.570;5.638;2023-07-08T00:43:50;18.20;62.30
81321;DHT22;70785;52.570;5.638;2023-07-08T00:51:38;18.20;62.40
81321;DHT22;70785;52.570;5.638;2023-07-08T00:54:10;18.10;62.40
81321;DHT22;70785;52.570;5.638;2023-07-08T00:56:58;18.10;62.50
81321;DHT22;70785;52.570;5.638;2023-07-08T01:01:53;18.10;62.50
81321;DHT22;70785;52.570;5.638;2023-07-08T01:04:24;18.10;62.50
81321;DHT22;70785;52.570;5.638;2023-07-08T01:06:54;18.10;62.50
81321;DHT22;70785;52.570;5.638;2023-07-08T01:09:32;18.00;62.60
81321;DHT22;70785;52.570;5.638;2023-07-08T01:12:03;18.00;62.70
81321;DHT22;70785;52.570;5.638;2023-07-08T01:14:31;18.00;62.70
81321;DHT22;70785;52.570;5.638;2023-07-08T01:16:59;18.00;62.80
81321;DHT22;70785;52.570;5.638;2023-07-08T01:19:27;17.90;62.80
81321;DHT22;70785;52.570;5.638;2023-07-08T01:22:05;17.90;62.90
81321;DHT22;70785;52.570;5.638;2023-07-08T01:24:34;17.90;62.90
81321;DHT22;70785;52.570;5.638;2023-07-08T01:27:02;17.80;62.90
81321;DHT22;70785;52.570;5.638;2023-07-08T01:29:30;17.80;62.90
81321;DHT22;70785;52.570;5.638;2023-07-08T01:31:57;17.90;62.80
81321;DHT22;70785;52.570;5.638;2023-07-08T01:34:24;17.90;62.80
81321;DHT22;70785;52.570;5.638;2023-07-08T01:36:55;17.90;62.80
81321;DHT22;70785;52.570;5.638;2023-07-08T01:39:23;17.80;62.90
81321;DHT22;70785;52.570;5.638;2023-07-08T01:41:50;17.80;62.90
81321;DHT22;70785;52.570;5.638;2023-07-08T01:44:37;17.80;62.80
81321;DHT22;70785;52.570;5.638;2023-07-08T01:47:13;17.80;62.90
81321;DHT22;70785;52.570;5.638;2023-07-08T01:49:42;17.80;62.80
81321;DHT22;70785;52.570;5.638;2023-07-08T01:52:09;17.70;62.90
81321;DHT22;70785;52.570;5.638;2023-07-08T01:54:36;17.70;62.90
81321;DHT22;70785;52.570;5.638;2023-07-08T01:57:02;17.60;63.00
81321;DHT22;70785;52.570;5.638;2023-07-08T01:59:28;17.60;62.90
81321;DHT22;70785;52.570;5.638;2023-07-08T02:01:55;17.60;62.90
81321;DHT22;70785;52.570;5.638;2023-07-08T02:04:22;17.60;62.90
81321;DHT22;70785;52.570;5.638;2023-07-08T02:06:59;17.50;63.00
81321;DHT22;70785;52.570;5.638;2023-07-08T02:09:26;17.50;63.10
81321;DHT22;70785;52.570;5.638;2023-07-08T02:11:53;17.50;63.00
81321;DHT22;70785;52.570;5.638;2023-07-08T02:14:19;17.50;63.10
81321;DHT22;70785;52.570;5.638;2023-07-08T02:16:45;17.50;63.00
81321;DHT22;70785;52.570;5.638;2023-07-08T02:19:11;17.50;63.10
81321;DHT22;70785;52.570;5.638;2023-07-08T02:21:38;17.50;63.00
81321;DHT22;70785;52.570;5.638;2023-07-08T02:24:05;17.50;63.00
81321;DHT22;70785;52.570;5.638;2023-07-08T02:26:31;17.50;63.00
81321;DHT22;70785;52.570;5.638;2023-07-08T02:28:58;17.40;63.00
81321;DHT22;70785;52.570;5.638;2023-07-08T02:31:25;17.40;63.10
81321;DHT22;70785;52.570;5.638;2023-07-08T02:33:52;17.40;63.20
81321;DHT22;70785;52.570;5.638;2023-07-08T02:36:18;17.30;63.30
81321;DHT22;70785;52.570;5.638;2023-07-08T02:38:44;17.20;63.40
81321;DHT22;70785;52.570;5.638;2023-07-08T02:41:10;17.20;63.40
81321;DHT22;70785;52.570;5.638;2023-07-08T02:43:39;17.20;63.40
81321;DHT22;70785;52.570;5.638;2023-07-08T02:46:05;17.20;63.50
81321;DHT22;70785;52.570;5.638;2023-07-08T02:48:31;17.20;63.50
81321;DHT22;70785;52.570;5.638;2023-07-08T02:51:05;17.20;63.50
81321;DHT22;70785;52.570;5.638;2023-07-08T02:53:31;17.10;63.60
81321;DHT22;70785;52.570;5.638;2023-07-08T02:55:58;17.10;63.50
81321;DHT22;70785;52.570;5.638;2023-07-08T02:58:24;17.10;63.60
81321;DHT22;70785;52.570;5.638;2023-07-08T03:00:54;17.10;63.60
81321;DHT22;70785;52.570;5.638;2023-07-08T03:03:21;17.10;63.60
81321;DHT22;70785;52.570;5.638;2023-07-08T03:05:58;17.10;63.50
81321;DHT22;70785;52.570;5.638;2023-07-08T03:08:26;17.00;63.60
81321;DHT22;70785;52.570;5.638;2023-07-08T03:10:57;17.00;63.60
81321;DHT22;70785;52.570;5.638;2023-07-08T03:13:24;17.00;63.60
81321;DHT22;70785;52.570;5.638;2023-07-08T03:15:51;17.00;63.60
81321;DHT22;70785;52.570;5.638;2023-07-08T03:18:17;17.00;63.60
81321;DHT22;70785;52.570;5.638;2023-07-08T03:20:44;17.00;63.60
81321;DHT22;70785;52.570;5.638;2023-07-08T03:23:13;17.00;63.70
81321;DHT22;70785;52.570;5.638;2023-07-08T03:25:39;17.00;63.70
81321;DHT22;70785;52.570;5.638;2023-07-08T03:28:06;17.00;63.70
81321;DHT22;70785;52.570;5.638;2023-07-08T03:30:33;16.90;63.70
81321;DHT22;70785;52.570;5.638;2023-07-08T03:33:00;16.90;63.80
81321;DHT22;70785;52.570;5.638;2023-07-08T03:35:26;16.90;63.90
81321;DHT22;70785;52.570;5.638;2023-07-08T03:37:53;16.90;63.90
81321;DHT22;70785;52.570;5.638;2023-07-08T03:40:19;16.80;64.00
81321;DHT22;70785;52.570;5.638;2023-07-08T03:42:45;16.80;64.00
81321;DHT22;70785;52.570;5.638;2023-07-08T03:45:11;16.80;64.10
81321;DHT22;70785;52.570;5.638;2023-07-08T03:47:38;16.80;64.20
81321;DHT22;70785;52.570;5.638;2023-07-08T03:50:06;16.80;64.20
81321;DHT22;70785;52.570;5.638;2023-07-08T03:52:35;16.70;64.30
81321;DHT22;70785;52.570;5.638;2023-07-08T03:55:02;16.70;64.30
81321;DHT22;70785;52.570;5.638;2023-07-08T03:57:30;16.70;64.40
81321;DHT22;70785;52.570;5.638;2023-07-08T03:59:56;16.70;64.40
81321;DHT22;70785;52.570;5.638;2023-07-08T04:02:23;16.70;64.40
81321;DHT22;70785;52.570;5.638;2023-07-08T04:04:49;16.70;64.40
81321;DHT22;70785;52.570;5.638;2023-07-08T04:07:16;16.70;64.40
81321;DHT22;70785;52.570;5.638;2023-07-08T04:09:42;16.70;64.40
81321;DHT22;70785;52.570;5.638;2023-07-08T04:12:14;16.70;64.30
81321;DHT22;70785;52.570;5.638;2023-07-08T04:14:40;16.70;64.30
81321;DHT22;70785;52.570;5.638;2023-07-08T04:17:09;16.70;64.30
81321;DHT22;70785;52.570;5.638;2023-07-08T04:19:35;16.70;64.30
81321;DHT22;70785;52.570;5.638;2023-07-08T04:22:02;16.70;64.20
81321;DHT22;70785;52.570;5.638;2023-07-08T04:24:28;16.80;64.20
81321;DHT22;70785;52.570;5.638;2023-07-08T04:26:54;16.80;64.20
81321;DHT22;70785;52.570;5.638;2023-07-08T04:29:22;16.80;64.20
81321;DHT22;70785;52.570;5.638;2023-07-08T04:31:48;16.80;64.20
81321;DHT22;70785;52.570;5.638;2023-07-08T04:34:15;16.80;64.20
81321;DHT22;70785;52.570;5.638;2023-07-08T04:36:42;16.80;64.10
81321;DHT22;70785;52.570;5.638;2023-07-08T04:39:09;16.90;64.10
81321;DHT22;70785;52.570;5.638;2023-07-08T04:41:39;16.90;64.10
81321;DHT22;70785;52.570;5.638;2023-07-08T04:44:10;16.90;64.10
81321;DHT22;70785;52.570;5.638;2023-07-08T04:46:38;16.90;64.10
81321;DHT22;70785;52.570;5.638;2023-07-08T04:49:06;17.00;64.00
81321;DHT22;70785;52.570;5.638;2023-07-08T04:51:33;17.00;64.00
81321;DHT22;70785;52.570;5.638;2023-07-08T04:53:59;17.00;63.90
81321;DHT22;70785;52.570;5.638;2023-07-08T04:56:33;17.10;63.90
81321;DHT22;70785;52.570;5.638;2023-07-08T04:59:00;17.20;63.80
81321;DHT22;70785;52.570;5.638;2023-07-08T05:01:27;17.20;63.80
81321;DHT22;70785;52.570;5.638;2023-07-08T05:03:53;17.20;63.70
81321;DHT22;70785;52.570;5.638;2023-07-08T05:06:20;17.20;63.70
81321;DHT22;70785;52.570;5.638;2023-07-08T05:08:46;17.40;63.60
81321;DHT22;70785;52.570;5.638;2023-07-08T05:11:12;17.40;63.60
81321;DHT22;70785;52.570;5.638;2023-07-08T05:13:38;17.50;63.50
81321;DHT22;70785;52.570;5.638;2023-07-08T05:16:04;17.50;63.40
81321;DHT22;70785;52.570;5.638;2023-07-08T05:18:30;17.50;63.30
81321;DHT22;70785;52.570;5.638;2023-07-08T05:20:56;17.60;63.30
81321;DHT22;70785;52.570;5.638;2023-07-08T05:23:22;17.60;63.30
81321;DHT22;70785;52.570;5.638;2023-07-08T05:25:50;17.70;63.20
81321;DHT22;70785;52.570;5.638;2023-07-08T05:28:16;17.80;63.10
81321;DHT22;70785;52.570;5.638;2023-07-08T05:30:42;17.80;63.00
81321;DHT22;70785;52.570;5.638;2023-07-08T05:33:09;17.90;62.90
81321;DHT22;70785;52.570;5.638;2023-07-08T05:35:35;18.00;62.80
81321;DHT22;70785;52.570;5.638;2023-07-08T05:38:01;18.10;62.70
81321;DHT22;70785;52.570;5.638;2023-07-08T05:40:27;18.20;62.60
81321;DHT22;70785;52.570;5.638;2023-07-08T05:42:53;18.30;62.50
81321;DHT22;70785;52.570;5.638;2023-07-08T05:45:19;18.40;62.40
81321;DHT22;70785;52.570;5.638;2023-07-08T05:47:46;18.50;62.30
81321;DHT22;70785;52.570;5.638;2023-07-08T05:50:12;18.70;62.10
81321;DHT22;70785;52.570;5.638;2023-07-08T05:52:38;18.80;62.00
81321;DHT22;70785;52.570;5.638;2023-07-08T05:55:04;18.90;61.70
81321;DHT22;70785;52.570;5.638;2023-07-08T05:57:31;18.90;61.40
81321;DHT22;70785;52.570;5.638;2023-07-08T05:59:57;19.00;61.30
81321;DHT22;70785;52.570;5.638;2023-07-08T06:02:23;19.00;61.20
81321;DHT22;70785;52.570;5.638;2023-07-08T06:04:51;19.10;61.10
81321;DHT22;70785;52.570;5.638;2023-07-08T06:07:17;19.20;61.00
81321;DHT22;70785;52.570;5.638;2023-07-08T06:09:44;19.30;60.80
81321;DHT22;70785;52.570;5.638;2023-07-08T06:12:10;19.40;60.60
81321;DHT22;70785;52.570;5.638;2023-07-08T06:14:37;19.50;60.50
81321;DHT22;70785;52.570;5.638;2023-07-08T06:17:04;19.60;60.30
81321;DHT22;70785;52.570;5.638;2023-07-08T06:19:31;19.70;60.20
81321;DHT22;70785;52.570;5.638;2023-07-08T06:21:57;19.80;60.10
81321;DHT22;70785;52.570;5.638;2023-07-08T06:24:23;19.90;60.00
81321;DHT22;70785;52.570;5.638;2023-07-08T06:26:49;20.00;59.80
81321;DHT22;70785;52.570;5.638;2023-07-08T06:29:15;20.00;59.70
81321;DHT22;70785;52.570;5.638;2023-07-08T06:31:42;20.00;59.60
81321;DHT22;70785;52.570;5.638;2023-07-08T06:34:08;20.10;59.50
81321;DHT22;70785;52.570;5.638;2023-07-08T06:36:34;20.10;59.60
81321;DHT22;70785;52.570;5.638;2023-07-08T06:39:01;20.20;59.60
81321;DHT22;70785;52.570;5.638;2023-07-08T06:41:27;20.30;59.50
81321;DHT22;70785;52.570;5.638;2023-07-08T06:43:53;20.30;59.40
81321;DHT22;70785;52.570;5.638;2023-07-08T06:46:22;20.50;59.40
81321;DHT22;70785;52.570;5.638;2023-07-08T06:48:48;20.50;59.30
81321;DHT22;70785;52.570;5.638;2023-07-08T06:51:14;20.60;59.20
81321;DHT22;70785;52.570;5.638;2023-07-08T06:53:40;20.70;59.00
81321;DHT22;70785;52.570;5.638;2023-07-08T06:56:06;20.80;58.90
81321;DHT22;70785;52.570;5.638;2023-07-08T06:58:32;20.90;58.80
81321;DHT22;70785;52.570;5.638;2023-07-08T07:00:58;20.90;58.70
81321;DHT22;70785;52.570;5.638;2023-07-08T07:03:25;21.00;58.60
81321;DHT22;70785;52.570;5.638;2023-07-08T07:05:51;21.10;58.40
81321;DHT22;70785;52.570;5.638;2023-07-08T07:08:17;21.30;58.20
81321;DHT22;70785;52.570;5.638;2023-07-08T07:10:43;21.40;58.00
81321;DHT22;70785;52.570;5.638;2023-07-08T07:13:09;21.50;57.90
81321;DHT22;70785;52.570;5.638;2023-07-08T07:15:35;21.70;57.80
81321;DHT22;70785;52.570;5.638;2023-07-08T07:18:02;21.90;57.40
81321;DHT22;70785;52.570;5.638;2023-07-08T07:20:28;22.00;57.00
81321;DHT22;70785;52.570;5.638;2023-07-08T07:22:55;22.00;56.70
81321;DHT22;70785;52.570;5.638;2023-07-08T07:25:21;22.10;56.30
81321;DHT22;70785;52.570;5.638;2023-07-08T07:27:47;22.20;56.20
81321;DHT22;70785;52.570;5.638;2023-07-08T07:30:14;22.30;56.00
81321;DHT22;70785;52.570;5.638;2023-07-08T07:32:42;22.30;55.70
81321;DHT22;70785;52.570;5.638;2023-07-08T07:35:09;22.30;55.50
81321;DHT22;70785;52.570;5.638;2023-07-08T07:37:40;22.40;55.40
81321;DHT22;70785;52.570;5.638;2023-07-08T07:40:11;22.40;55.30
81321;DHT22;70785;52.570;5.638;2023-07-08T07:42:40;22.50;55.30
81321;DHT22;70785;52.570;5.638;2023-07-08T07:45:06;22.50;55.30
81321;DHT22;70785;52.570;5.638;2023-07-08T07:47:33;22.60;55.10
81321;DHT22;70785;52.570;5.638;2023-07-08T07:49:59;22.70;55.20
81321;DHT22;70785;52.570;5.638;2023-07-08T07:52:25;22.80;55.10
81321;DHT22;70785;52.570;5.638;2023-07-08T07:54:52;22.90;55.10
81321;DHT22;70785;52.570;5.638;2023-07-08T07:57:20;23.00;54.80
81321;DHT22;70785;52.570;5.638;2023-07-08T07:59:48;23.10;54.70
81321;DHT22;70785;52.570;5.638;2023-07-08T08:02:15;23.20;54.60
81321;DHT22;70785;52.570;5.638;2023-07-08T08:04:41;23.30;54.60
81321;DHT22;70785;52.570;5.638;2023-07-08T08:07:07;23.40;54.60
81321;DHT22;70785;52.570;5.638;2023-07-08T08:09:34;23.50;54.40
81321;DHT22;70785;52.570;5.638;2023-07-08T08:12:02;23.60;54.40
81321;DHT22;70785;52.570;5.638;2023-07-08T08:14:28;23.60;54.10
81321;DHT22;70785;52.570;5.638;2023-07-08T08:16:54;23.70;54.20
81321;DHT22;70785;52.570;5.638;2023-07-08T08:19:20;23.80;54.10
81321;DHT22;70785;52.570;5.638;2023-07-08T08:21:46;23.90;54.10
81321;DHT22;70785;52.570;5.638;2023-07-08T08:24:12;23.90;54.10
81321;DHT22;70785;52.570;5.638;2023-07-08T08:26:38;24.00;54.00
81321;DHT22;70785;52.570;5.638;2023-07-08T08:29:05;24.10;53.90
81321;DHT22;70785;52.570;5.638;2023-07-08T08:31:31;24.20;53.70
81321;DHT22;70785;52.570;5.638;2023-07-08T08:33:57;24.30;53.40
81321;DHT22;70785;52.570;5.638;2023-07-08T08:36:24;24.40;53.10
81321;DHT22;70785;52.570;5.638;2023-07-08T08:38:50;24.40;53.20
81321;DHT22;70785;52.570;5.638;2023-07-08T08:41:18;24.50;53.00
81321;DHT22;70785;52.570;5.638;2023-07-08T08:43:47;24.50;52.80
81321;DHT22;70785;52.570;5.638;2023-07-08T08:49:18;24.60;52.90
81321;DHT22;70785;52.570;5.638;2023-07-08T08:51:48;24.70;52.50
81321;DHT22;70785;52.570;5.638;2023-07-08T08:54:15;24.80;52.40
81321;DHT22;70785;52.570;5.638;2023-07-08T08:57:17;25.00;52.30
81321;DHT22;70785;52.570;5.638;2023-07-08T08:59:54;25.00;52.60
81321;DHT22;70785;52.570;5.638;2023-07-08T09:02:57;25.20;52.80
81321;DHT22;70785;52.570;5.638;2023-07-08T09:05:25;25.30;53.00
81321;DHT22;70785;52.570;5.638;2023-07-08T09:08:16;25.40;53.00
81321;DHT22;70785;52.570;5.638;2023-07-08T09:11:01;25.50;53.00
81321;DHT22;70785;52.570;5.638;2023-07-08T09:13:33;25.60;53.00
81321;DHT22;70785;52.570;5.638;2023-07-08T09:21:23;25.80;52.70
81321;DHT22;70785;52.570;5.638;2023-07-08T09:23:52;25.80;52.60
81321;DHT22;70785;52.570;5.638;2023-07-08T09:26:22;25.90;52.50
81321;DHT22;70785;52.570;5.638;2023-07-08T09:28:49;26.00;52.50
81321;DHT22;70785;52.570;5.638;2023-07-08T09:34:07;26.10;52.20
81321;DHT22;70785;52.570;5.638;2023-07-08T09:36:33;26.20;52.10
81321;DHT22;70785;52.570;5.638;2023-07-08T09:39:00;26.20;52.20
81321;DHT22;70785;52.570;5.638;2023-07-08T09:41:35;26.20;52.10
81321;DHT22;70785;52.570;5.638;2023-07-08T09:44:21;26.30;52.10
81321;DHT22;70785;52.570;5.638;2023-07-08T09:46:53;26.40;52.20
81321;DHT22;70785;52.570;5.638;2023-07-08T09:49:28;26.50;52.20
81321;DHT22;70785;52.570;5.638;2023-07-08T09:51:54;26.60;52.10
81321;DHT22;70785;52.570;5.638;2023-07-08T09:54:22;26.70;51.90
81321;DHT22;70785;52.570;5.638;2023-07-08T09:57:04;26.80;52.00
81321;DHT22;70785;52.570;5.638;2023-07-08T09:59:38;27.00;51.90
81321;DHT22;70785;52.570;5.638;2023-07-08T10:04:47;27.20;51.60
81321;DHT22;70785;52.570;5.638;2023-07-08T10:07:17;27.40;51.50
81321;DHT22;70785;52.570;5.638;2023-07-08T10:09:47;27.50;51.30
81321;DHT22;70785;52.570;5.638;2023-07-08T10:12:15;27.50;51.10
81321;DHT22;70785;52.570;5.638;2023-07-08T10:14:48;27.60;51.00
81321;DHT22;70785;52.570;5.638;2023-07-08T10:17:18;27.70;50.90
81321;DHT22;70785;52.570;5.638;2023-07-08T10:19:45;27.70;50.90
81321;DHT22;70785;52.570;5.638;2023-07-08T10:22:16;27.80;50.80
81321;DHT22;70785;52.570;5.638;2023-07-08T10:33:06;28.30;50.40
81321;DHT22;70785;52.570;5.638;2023-07-08T10:35:54;28.30;49.50
81321;DHT22;70785;52.570;5.638;2023-07-08T10:38:40;28.50;49.30
81321;DHT22;70785;52.570;5.638;2023-07-08T10:44:15;28.60;49.20
81321;DHT22;70785;52.570;5.638;2023-07-08T10:49:41;28.90;49.30
81321;DHT22;70785;52.570;5.638;2023-07-08T11:05:54;29.40;47.00
81321;DHT22;70785;52.570;5.638;2023-07-08T11:13:49;29.60;46.70
81321;DHT22;70785;52.570;5.638;2023-07-08T11:16:48;29.70;46.90
81321;DHT22;70785;52.570;5.638;2023-07-08T11:19:25;29.80;46.60
81321;DHT22;70785;52.570;5.638;2023-07-08T11:21:54;29.90;46.50
81321;DHT22;70785;52.570;5.638;2023-07-08T11:26:53;30.00;46.20
81321;DHT22;70785;52.570;5.638;2023-07-08T11:29:25;30.10;46.30
81321;DHT22;70785;52.570;5.638;2023-07-08T11:31:55;30.10;46.30
81321;DHT22;70785;52.570;5.638;2023-07-08T11:34:22;30.30;46.20
81321;DHT22;70785;52.570;5.638;2023-07-08T11:36:49;30.40;45.90
81321;DHT22;70785;52.570;5.638;2023-07-08T11:39:28;30.50;45.50
81321;DHT22;70785;52.570;5.638;2023-07-08T11:42:05;30.50;45.50
81321;DHT22;70785;52.570;5.638;2023-07-08T11:44:42;30.70;45.50
81321;DHT22;70785;52.570;5.638;2023-07-08T11:47:21;30.80;45.20
81321;DHT22;70785;52.570;5.638;2023-07-08T11:49:50;30.90;44.30
81321;DHT22;70785;52.570;5.638;2023-07-08T11:52:20;30.80;44.30
81321;DHT22;70785;52.570;5.638;2023-07-08T11:54:48;30.80;44.70
81321;DHT22;70785;52.570;5.638;2023-07-08T11:57:37;30.90;44.80
81321;DHT22;70785;52.570;5.638;2023-07-08T12:00:18;31.00;44.70
81321;DHT22;70785;52.570;5.638;2023-07-08T12:03:51;31.10;44.50
81321;DHT22;70785;52.570;5.638;2023-07-08T12:05:57;31.30;44.40
81321;DHT22;70785;52.570;5.638;2023-07-08T12:08:33;31.30;44.50
81321;DHT22;70785;52.570;5.638;2023-07-08T12:11:00;31.30;44.30
81321;DHT22;70785;52.570;5.638;2023-07-08T12:13:26;31.40;44.40
81321;DHT22;70785;52.570;5.638;2023-07-08T12:15:52;31.50;44.30
81321;DHT22;70785;52.570;5.638;2023-07-08T12:18:22;31.60;44.20
81321;DHT22;70785;52.570;5.638;2023-07-08T12:20:55;31.70;44.20
81321;DHT22;70785;52.570;5.638;2023-07-08T12:23:23;31.70;44.10
81321;DHT22;70785;52.570;5.638;2023-07-08T12:25:51;31.70;44.10
81321;DHT22;70785;52.570;5.638;2023-07-08T12:28:18;31.80;44.00
81321;DHT22;70785;52.570;5.638;2023-07-08T12:30:45;31.80;44.10
81321;DHT22;70785;52.570;5.638;2023-07-08T12:33:14;31.90;43.90
81321;DHT22;70785;52.570;5.638;2023-07-08T12:35:43;32.00;43.80
81321;DHT22;70785;52.570;5.638;2023-07-08T12:40:43;32.20;43.50
81321;DHT22;70785;52.570;5.638;2023-07-08T12:43:10;32.20;43.40
81321;DHT22;70785;52.570;5.638;2023-07-08T12:45:37;32.20;43.30
81321;DHT22;70785;52.570;5.638;2023-07-08T12:48:03;32.30;43.50
81321;DHT22;70785;52.570;5.638;2023-07-08T12:50:29;32.30;43.60
81321;DHT22;70785;52.570;5.638;2023-07-08T12:52:55;32.30;43.80
81321;DHT22;70785;52.570;5.638;2023-07-08T12:55:23;32.40;44.00
81321;DHT22;70785;52.570;5.638;2023-07-08T12:57:50;32.50;43.90
81321;DHT22;70785;52.570;5.638;2023-07-08T13:00:38;32.50;43.50
81321;DHT22;70785;52.570;5.638;2023-07-08T13:03:17;32.50;43.70
81321;DHT22;70785;52.570;5.638;2023-07-08T13:05:44;32.50;43.90
81321;DHT22;70785;52.570;5.638;2023-07-08T13:08:14;32.50;43.80
81321;DHT22;70785;52.570;5.638;2023-07-08T13:10:41;32.50;44.00
81321;DHT22;70785;52.570;5.638;2023-07-08T13:13:13;32.60;43.90
81321;DHT22;70785;52.570;5.638;2023-07-08T13:15:42;32.70;43.80
81321;DHT22;70785;52.570;5.638;2023-07-08T13:18:17;32.80;43.70
81321;DHT22;70785;52.570;5.638;2023-07-08T13:20:48;32.80;43.50
81321;DHT22;70785;52.570;5.638;2023-07-08T13:23:16;32.80;43.70
81321;DHT22;70785;52.570;5.638;2023-07-08T13:25:42;32.90;43.80
81321;DHT22;70785;52.570;5.638;2023-07-08T13:28:18;33.00;43.90
81321;DHT22;70785;52.570;5.638;2023-07-08T13:31:02;33.00;43.90
81321;DHT22;70785;52.570;5.638;2023-07-08T13:33:38;33.10;43.70
81321;DHT22;70785;52.570;5.638;2023-07-08T13:36:05;33.10;43.60
81321;DHT22;70785;52.570;5.638;2023-07-08T13:38:33;33.20;43.60
81321;DHT22;70785;52.570;5.638;2023-07-08T13:41:05;33.30;43.70
81321;DHT22;70785;52.570;5.638;2023-07-08T13:43:35;33.40;43.60
81321;DHT22;70785;52.570;5.638;2023-07-08T13:46:02;33.60;43.50
81321;DHT22;70785;52.570;5.638;2023-07-08T13:48:34;33.80;43.40
81321;DHT22;70785;52.570;5.638;2023-07-08T13:51:07;34.00;43.40
81321;DHT22;70785;52.570;5.638;2023-07-08T13:53:52;34.30;42.70
81321;DHT22;70785;52.570;5.638;2023-07-08T13:56:30;34.50;42.40
81321;DHT22;70785;52.570;5.638;2023-07-08T13:59:06;34.80;42.20
81321;DHT22;70785;52.570;5.638;2023-07-08T14:01:35;35.00;42.10
81321;DHT22;70785;52.570;5.638;2023-07-08T14:04:03;35.20;42.00
81321;DHT22;70785;52.570;5.638;2023-07-08T14:06:37;35.50;41.90
81321;DHT22;70785;52.570;5.638;2023-07-08T14:09:16;35.90;41.20
81321;DHT22;70785;52.570;5.638;2023-07-08T14:11:43;36.20;41.00
81321;DHT22;70785;52.570;5.638;2023-07-08T14:14:10;36.50;40.80
81321;DHT22;70785;52.570;5.638;2023-07-08T14:16:39;36.70;40.00
81321;DHT22;70785;52.570;5.638;2023-07-08T14:19:15;36.90;40.10
81321;DHT22;70785;52.570;5.638;2023-07-08T14:21:43;37.20;40.00
81321;DHT22;70785;52.570;5.638;2023-07-08T14:24:13;37.60;40.00
81321;DHT22;70785;52.570;5.638;2023-07-08T14:26:43;37.90;39.60
81321;DHT22;70785;52.570;5.638;2023-07-08T14:29:11;38.00;39.00
81321;DHT22;70785;52.570;5.638;2023-07-08T14:31:37;38.10;38.30
81321;DHT22;70785;52.570;5.638;2023-07-08T14:34:07;38.10;38.30
81321;DHT22;70785;52.570;5.638;2023-07-08T14:36:33;38.10;38.20
81321;DHT22;70785;52.570;5.638;2023-07-08T14:39:00;38.20;38.50
81321;DHT22;70785;52.570;5.638;2023-07-08T14:41:27;38.30;38.30
81321;DHT22;70785;52.570;5.638;2023-07-08T14:43:54;38.40;38.40
81321;DHT22;70785;52.570;5.638;2023-07-08T14:46:20;38.50;38.20
81321;DHT22;70785;52.570;5.638;2023-07-08T14:48:46;38.60;37.70
81321;DHT22;70785;52.570;5.638;2023-07-08T14:51:12;38.70;37.50
81321;DHT22;70785;52.570;5.638;2023-07-08T14:53:39;38.90;37.30
81321;DHT22;70785;52.570;5.638;2023-07-08T14:56:15;39.00;37.10
81321;DHT22;70785;52.570;5.638;2023-07-08T14:58:44;39.30;36.80
81321;DHT22;70785;52.570;5.638;2023-07-08T15:01:18;39.50;36.50
81321;DHT22;70785;52.570;5.638;2023-07-08T15:03:45;39.60;35.90
81321;DHT22;70785;52.570;5.638;2023-07-08T15:06:12;39.70;36.30
81321;DHT22;70785;52.570;5.638;2023-07-08T15:08:38;39.90;35.70
81321;DHT22;70785;52.570;5.638;2023-07-08T15:11:04;40.00;35.60
81321;DHT22;70785;52.570;5.638;2023-07-08T15:13:36;39.90;35.60
81321;DHT22;70785;52.570;5.638;2023-07-08T15:16:02;39.80;35.70
81321;DHT22;70785;52.570;5.638;2023-07-08T15:18:28;39.80;35.70
81321;DHT22;70785;52.570;5.638;2023-07-08T15:20:55;39.80;35.60
81321;DHT22;70785;52.570;5.638;2023-07-08T15:23:21;39.60;35.90
81321;DHT22;70785;52.570;5.638;2023-07-08T15:25:47;39.40;36.20
81321;DHT22;70785;52.570;5.638;2023-07-08T15:28:18;39.10;36.10
81321;DHT22;70785;52.570;5.638;2023-07-08T15:30:45;38.70;36.20
81321;DHT22;70785;52.570;5.638;2023-07-08T15:33:15;38.60;36.50
81321;DHT22;70785;52.570;5.638;2023-07-08T15:35:42;38.70;36.20
81321;DHT22;70785;52.570;5.638;2023-07-08T15:38:09;38.60;36.30
81321;DHT22;70785;52.570;5.638;2023-07-08T15:40:38;38.70;36.30
81321;DHT22;70785;52.570;5.638;2023-07-08T15:43:04;38.80;36.00
81321;DHT22;70785;52.570;5.638;2023-07-08T15:45:35;38.80;36.30
81321;DHT22;70785;52.570;5.638;2023-07-08T15:48:04;38.90;36.50
81321;DHT22;70785;52.570;5.638;2023-07-08T15:50:30;39.00;36.20
81321;DHT22;70785;52.570;5.638;2023-07-08T15:52:56;38.80;36.10
81321;DHT22;70785;52.570;5.638;2023-07-08T15:55:30;38.30;36.20
81321;DHT22;70785;52.570;5.638;2023-07-08T15:58:02;37.60;36.80
81321;DHT22;70785;52.570;5.638;2023-07-08T16:00:31;37.30;37.00
81321;DHT22;70785;52.570;5.638;2023-07-08T16:02:58;37.00;37.40
81321;DHT22;70785;52.570;5.638;2023-07-08T16:05:25;36.90;37.50
81321;DHT22;70785;52.570;5.638;2023-07-08T16:07:53;37.00;37.70
81321;DHT22;70785;52.570;5.638;2023-07-08T16:10:21;37.30;37.50
81321;DHT22;70785;52.570;5.638;2023-07-08T16:12:48;37.60;37.40
81321;DHT22;70785;52.570;5.638;2023-07-08T16:15:16;37.80;37.30
81321;DHT22;70785;52.570;5.638;2023-07-08T16:17:43;37.70;37.20
81321;DHT22;70785;52.570;5.638;2023-07-08T16:20:16;37.30;37.20
81321;DHT22;70785;52.570;5.638;2023-07-08T16:22:43;36.90;37.40
81321;DHT22;70785;52.570;5.638;2023-07-08T16:25:14;36.50;37.70
81321;DHT22;70785;52.570;5.638;2023-07-08T16:27:45;36.10;38.00
81321;DHT22;70785;52.570;5.638;2023-07-08T16:30:14;35.70;38.30
81321;DHT22;70785;52.570;5.638;2023-07-08T16:32:41;35.40;38.70
81321;DHT22;70785;52.570;5.638;2023-07-08T16:35:10;35.30;38.90
81321;DHT22;70785;52.570;5.638;2023-07-08T16:37:37;35.50;38.90
81321;DHT22;70785;52.570;5.638;2023-07-08T16:40:14;35.90;38.70
81321;DHT22;70785;52.570;5.638;2023-07-08T16:42:43;36.00;38.70
81321;DHT22;70785;52.570;5.638;2023-07-08T16:45:11;35.90;38.90